createdAt,value
2023-07-31T00:00:22.854Z,5.78
2023-07-31T00:01:24.955Z,5.80
2023-07-31T00:04:32.966Z,6.05
2023-07-31T00:05:35.044Z,6.25
2023-07-31T00:06:37.801Z,6.18
2023-07-31T00:07:40.082Z,5.75
2023-07-31T00:08:42.049Z,6.13
2023-07-31T00:09:44.170Z,5.93
2023-07-31T00:10:46.228Z,6.45
2023-07-31T00:11:48.380Z,6.13
2023-07-31T00:12:50.555Z,6.05
2023-07-31T00:13:54.977Z,6.07
2023-07-31T00:14:57.034Z,6.28
2023-07-31T00:15:59.142Z,6.20
2023-07-31T00:17:01.232Z,5.88
2023-07-31T00:18:03.404Z,6.32
2023-07-31T00:19:05.456Z,6.00
2023-07-31T00:20:08.224Z,6.50
2023-07-31T00:21:10.248Z,6.28
2023-07-31T00:22:12.282Z,6.10
2023-07-31T00:23:14.414Z,6.40
2023-07-31T00:24:16.429Z,6.47
2023-07-31T00:25:18.660Z,6.53
2023-07-31T00:26:20.760Z,5.75
2023-07-31T00:27:22.970Z,6.80
2023-07-31T00:28:32.605Z,5.90
2023-07-31T00:29:41.710Z,6.45
2023-07-31T00:30:43.743Z,6.07
2023-07-31T00:31:45.867Z,6.18
2023-07-31T00:32:47.964Z,6.40
2023-07-31T00:33:50.555Z,6.28
2023-07-31T00:34:52.699Z,6.17
2023-07-31T00:35:54.785Z,6.55
2023-07-31T00:36:56.813Z,6.60
2023-07-31T00:37:59.947Z,6.38
2023-07-31T00:39:02.039Z,6.57
2023-07-31T00:40:22.427Z,5.60
2023-07-31T00:41:24.491Z,5.80
2023-07-31T00:42:44.884Z,6.22
2023-07-31T00:43:56.694Z,5.95
2023-07-31T00:46:09.975Z,5.45
2023-07-31T00:47:12.285Z,6.40
2023-07-31T00:48:14.460Z,6.35
2023-07-31T00:49:17.388Z,5.95
2023-07-31T00:50:19.652Z,6.03
2023-07-31T00:51:21.852Z,6.00
2023-07-31T00:52:23.951Z,6.05
2023-07-31T00:53:26.315Z,6.38
2023-07-31T00:54:28.416Z,6.25
2023-07-31T00:55:31.205Z,6.75
2023-07-31T00:56:34.090Z,6.40
2023-07-31T00:57:39.453Z,6.63
2023-07-31T00:58:42.073Z,6.10
2023-07-31T00:59:44.294Z,6.45
2023-07-31T01:00:46.376Z,5.82
2023-07-31T01:01:48.770Z,5.80
2023-07-31T01:02:52.239Z,5.70
2023-07-31T01:03:55.354Z,6.47
2023-07-31T01:04:57.518Z,6.30
2023-07-31T01:06:36.919Z,6.78
2023-07-31T01:07:48.324Z,6.40
2023-07-31T01:09:10.252Z,6.67
2023-07-31T01:10:19.853Z,6.70
2023-07-31T01:11:49.039Z,6.35
2023-07-31T01:12:52.670Z,6.13
2023-07-31T01:13:56.469Z,6.55
2023-07-31T01:15:12.179Z,6.20
2023-07-31T01:16:14.784Z,6.47
2023-07-31T01:17:17.296Z,6.40
2023-07-31T01:18:19.400Z,5.50
2023-07-31T01:19:24.789Z,5.70
2023-07-31T01:20:28.265Z,6.13
2023-07-31T01:21:36.492Z,6.13
2023-07-31T01:22:38.484Z,6.50
2023-07-31T01:24:35.085Z,6.07
2023-07-31T01:25:55.747Z,6.65
2023-07-31T01:27:05.515Z,5.50
2023-07-31T01:28:14.450Z,6.25
2023-07-31T01:29:28.987Z,6.10
2023-07-31T01:30:36.862Z,6.03
2023-07-31T01:31:40.871Z,6.63
2023-07-31T01:32:45.115Z,6.07
2023-07-31T01:33:48.139Z,6.07
2023-07-31T01:34:50.746Z,6.43
2023-07-31T01:35:53.712Z,6.38
2023-07-31T01:36:58.224Z,6.47
2023-07-31T01:38:00.329Z,6.35
2023-07-31T01:39:03.418Z,5.90
2023-07-31T01:40:07.634Z,5.80
2023-07-31T01:41:09.672Z,6.43
2023-07-31T01:42:11.705Z,6.40
2023-07-31T01:43:13.837Z,6.00
2023-07-31T01:44:15.887Z,5.95
2023-07-31T01:45:18.099Z,6.40
2023-07-31T01:46:20.209Z,6.82
2023-07-31T01:47:22.282Z,6.38
2023-07-31T01:48:24.407Z,6.10
2023-07-31T01:49:26.509Z,6.95
2023-07-31T01:50:28.545Z,6.10
2023-07-31T01:51:30.638Z,6.50
2023-07-31T01:52:32.638Z,6.28
2023-07-31T01:53:34.687Z,6.30
2023-07-31T01:54:37.932Z,6.20
2023-07-31T01:55:40.105Z,6.15
2023-07-31T01:56:43.284Z,6.20
2023-07-31T01:57:45.607Z,6.30
2023-07-31T01:58:47.641Z,6.35
2023-07-31T01:59:49.636Z,6.40
2023-07-31T02:00:51.679Z,6.15
2023-07-31T02:01:55.104Z,5.95
2023-07-31T02:02:57.369Z,5.65
2023-07-31T02:03:59.731Z,6.03
2023-07-31T02:05:01.928Z,6.57
2023-07-31T02:06:04.012Z,5.90
2023-07-31T02:07:06.450Z,6.00
2023-07-31T02:08:08.786Z,5.90
2023-07-31T02:09:11.341Z,6.13
2023-07-31T02:10:13.471Z,5.68
2023-07-31T02:11:15.606Z,6.20
2023-07-31T02:12:18.187Z,6.03
2023-07-31T02:13:20.256Z,6.28
2023-07-31T02:14:22.399Z,6.17
2023-07-31T02:15:24.425Z,6.03
2023-07-31T02:16:26.537Z,6.60
2023-07-31T02:17:28.589Z,6.00
2023-07-31T02:18:30.582Z,5.70
2023-07-31T02:19:32.817Z,5.90
2023-07-31T02:20:36.327Z,5.80
2023-07-31T02:21:38.400Z,6.15
2023-07-31T02:22:40.510Z,5.93
2023-07-31T02:23:42.553Z,5.72
2023-07-31T02:24:44.568Z,5.53
2023-07-31T02:25:47.206Z,5.63
2023-07-31T02:26:49.880Z,5.70
2023-07-31T02:27:51.923Z,5.82
2023-07-31T02:28:54.183Z,6.03
2023-07-31T02:29:56.423Z,5.70
2023-07-31T02:30:58.466Z,6.30
2023-07-31T02:32:01.648Z,6.28
2023-07-31T02:33:03.979Z,6.30
2023-07-31T02:34:05.956Z,6.07
2023-07-31T02:35:08.478Z,5.80
2023-07-31T02:36:10.518Z,5.70
2023-07-31T02:37:12.989Z,5.88
2023-07-31T02:38:15.041Z,6.43
2023-07-31T02:39:17.337Z,6.20
2023-07-31T02:40:19.330Z,5.47
2023-07-31T02:41:21.578Z,6.20
2023-07-31T02:42:23.670Z,5.57
2023-07-31T02:43:25.709Z,6.15
2023-07-31T02:44:28.002Z,6.38
2023-07-31T02:45:30.046Z,6.47
2023-07-31T02:46:32.757Z,6.80
2023-07-31T02:47:35.577Z,6.38
2023-07-31T02:48:37.825Z,6.25
2023-07-31T02:49:40.048Z,6.60
2023-07-31T02:50:42.025Z,6.78
2023-07-31T02:51:44.134Z,6.45
2023-07-31T02:52:46.226Z,6.88
2023-07-31T02:53:49.162Z,6.78
2023-07-31T02:54:51.260Z,6.57
2023-07-31T02:55:53.350Z,6.10
2023-07-31T02:56:55.496Z,6.90
2023-07-31T02:57:57.689Z,6.93
2023-07-31T02:58:59.709Z,6.43
2023-07-31T03:00:01.754Z,6.32
2023-07-31T03:01:04.274Z,6.28
2023-07-31T03:02:06.460Z,6.35
2023-07-31T03:03:08.722Z,6.15
2023-07-31T03:04:10.792Z,6.22
2023-07-31T03:05:12.833Z,6.00
2023-07-31T03:06:14.899Z,5.90
2023-07-31T03:07:16.959Z,6.30
2023-07-31T03:08:19.627Z,6.15
2023-07-31T03:09:21.733Z,6.25
2023-07-31T03:10:24.623Z,5.85
2023-07-31T03:11:26.746Z,6.00
2023-07-31T03:12:29.089Z,6.35
2023-07-31T03:13:31.084Z,6.22
2023-07-31T03:14:33.194Z,6.15
2023-07-31T03:15:35.268Z,5.85
2023-07-31T03:16:38.661Z,6.00
2023-07-31T03:17:41.082Z,5.82
2023-07-31T03:18:43.196Z,6.45
2023-07-31T03:19:45.217Z,5.93
2023-07-31T03:20:47.217Z,6.18
2023-07-31T03:21:49.318Z,5.45
2023-07-31T03:22:51.374Z,6.32
2023-07-31T03:23:53.362Z,6.28
2023-07-31T03:24:55.492Z,6.70
2023-07-31T03:26:02.450Z,6.47
2023-07-31T03:27:04.786Z,6.63
2023-07-31T03:28:07.382Z,6.55
2023-07-31T03:29:09.929Z,6.93
2023-07-31T03:30:12.213Z,6.70
2023-07-31T03:31:14.430Z,6.85
2023-07-31T03:32:16.504Z,6.88
2023-07-31T03:33:18.879Z,6.40
2023-07-31T03:34:20.909Z,6.60
2023-07-31T03:35:22.976Z,6.10
2023-07-31T03:36:24.950Z,6.50
2023-07-31T03:37:27.669Z,6.23
2023-07-31T03:38:29.828Z,6.30
2023-07-31T03:39:31.889Z,6.32
2023-07-31T03:40:33.959Z,6.88
2023-07-31T03:41:36.307Z,6.40
2023-07-31T03:42:38.372Z,6.70
2023-07-31T03:43:40.396Z,6.88
2023-07-31T03:44:42.567Z,6.78
2023-07-31T03:45:45.647Z,7.00
2023-07-31T03:46:47.760Z,6.75
2023-07-31T03:47:49.894Z,7.03
2023-07-31T03:48:52.295Z,6.70
2023-07-31T03:49:54.372Z,7.07
2023-07-31T03:50:57.529Z,6.60
2023-07-31T03:51:59.594Z,7.43
2023-07-31T03:53:01.578Z,6.65
2023-07-31T03:54:03.760Z,6.65
2023-07-31T03:55:06.344Z,6.35
2023-07-31T03:56:08.392Z,6.60
2023-07-31T03:57:10.451Z,5.82
2023-07-31T03:58:12.516Z,6.10
2023-07-31T03:59:14.546Z,5.88
2023-07-31T04:00:16.588Z,5.90
2023-07-31T04:01:20.764Z,5.53
2023-07-31T04:02:23.058Z,5.72
2023-07-31T04:03:25.055Z,5.45
2023-07-31T04:04:27.114Z,5.88
2023-07-31T04:05:31.190Z,6.10
2023-07-31T04:06:33.438Z,5.75
2023-07-31T04:07:35.468Z,6.15
2023-07-31T04:08:37.488Z,6.50
2023-07-31T04:09:39.571Z,5.90
2023-07-31T04:10:41.653Z,6.20
2023-07-31T04:11:43.703Z,6.00
2023-07-31T04:12:45.713Z,6.05
2023-07-31T04:13:47.714Z,5.78
2023-07-31T04:14:49.847Z,6.50
2023-07-31T04:15:52.132Z,6.15
2023-07-31T04:16:54.162Z,6.78
2023-07-31T04:17:56.226Z,6.90
2023-07-31T04:18:58.314Z,6.10
2023-07-31T04:20:00.353Z,6.60
2023-07-31T04:21:03.591Z,5.90
2023-07-31T04:22:05.748Z,6.57
2023-07-31T04:23:07.802Z,6.75
2023-07-31T04:24:09.838Z,6.28
2023-07-31T04:25:11.920Z,6.25
2023-07-31T04:26:13.983Z,6.43
2023-07-31T04:27:16.070Z,7.22
2023-07-31T04:28:18.336Z,6.40
2023-07-31T04:29:21.136Z,6.40
2023-07-31T04:30:23.243Z,6.70
2023-07-31T04:31:25.307Z,6.38
2023-07-31T04:32:27.778Z,6.72
2023-07-31T04:33:29.868Z,6.32
2023-07-31T04:34:31.833Z,6.15
2023-07-31T04:35:33.939Z,6.20
2023-07-31T04:36:36.326Z,6.95
2023-07-31T04:37:39.599Z,6.28
2023-07-31T04:38:42.363Z,6.93
2023-07-31T04:39:44.477Z,6.83
2023-07-31T04:40:46.630Z,6.80
2023-07-31T04:41:48.644Z,6.55
2023-07-31T04:42:50.683Z,6.68
2023-07-31T04:43:52.766Z,6.38
2023-07-31T04:44:54.904Z,6.80
2023-07-31T04:45:57.287Z,6.80
2023-07-31T04:46:59.428Z,6.40
2023-07-31T04:48:01.471Z,6.30
2023-07-31T04:49:04.154Z,6.50
2023-07-31T04:50:06.854Z,6.70
2023-07-31T04:51:11.188Z,6.47
2023-07-31T04:52:13.242Z,6.65
2023-07-31T04:53:15.231Z,6.50
2023-07-31T04:54:17.560Z,6.65
2023-07-31T04:55:19.584Z,6.72
2023-07-31T04:56:21.692Z,6.75
2023-07-31T04:57:23.751Z,6.53
2023-07-31T04:58:26.032Z,6.63
2023-07-31T04:59:28.096Z,5.82
2023-07-31T05:00:30.185Z,6.40
2023-07-31T05:01:32.431Z,6.40
2023-07-31T05:02:34.586Z,6.43
2023-07-31T05:03:36.798Z,6.10
2023-07-31T05:04:38.915Z,6.25
2023-07-31T05:05:40.925Z,5.75
2023-07-31T05:06:43.472Z,6.40
2023-07-31T05:07:45.520Z,6.18
2023-07-31T05:08:47.545Z,6.65
2023-07-31T05:09:49.608Z,6.80
2023-07-31T05:10:51.665Z,7.20
2023-07-31T05:11:53.707Z,7.63
2023-07-31T05:12:55.783Z,7.45
2023-07-31T05:13:57.819Z,7.40
2023-07-31T05:14:59.886Z,7.40
2023-07-31T05:16:03.554Z,7.55
2023-07-31T05:17:06.092Z,7.97
2023-07-31T05:18:08.184Z,7.80
2023-07-31T05:19:10.207Z,8.48
2023-07-31T05:20:12.723Z,7.63
2023-07-31T05:21:14.916Z,7.87
2023-07-31T05:22:16.942Z,7.50
2023-07-31T05:23:18.935Z,7.78
2023-07-31T05:24:20.964Z,7.80
2023-07-31T05:25:22.956Z,7.68
2023-07-31T05:26:25.040Z,7.65
2023-07-31T05:27:27.181Z,7.68
2023-07-31T05:28:29.346Z,7.20
2023-07-31T05:29:31.442Z,6.93
2023-07-31T05:30:33.539Z,6.80
2023-07-31T05:31:35.706Z,7.60
2023-07-31T05:32:37.822Z,7.30
2023-07-31T05:33:39.854Z,7.63
2023-07-31T05:34:41.958Z,7.50
2023-07-31T05:35:45.992Z,7.88
2023-07-31T05:36:47.985Z,7.28
2023-07-31T05:37:49.997Z,6.93
2023-07-31T05:38:52.353Z,6.90
2023-07-31T05:39:54.356Z,6.95
2023-07-31T05:40:56.422Z,7.00
2023-07-31T05:41:58.454Z,7.23
2023-07-31T05:43:00.499Z,7.47
2023-07-31T05:44:02.635Z,7.28
2023-07-31T05:45:05.202Z,7.15
2023-07-31T05:46:08.178Z,6.22
2023-07-31T05:47:10.423Z,6.55
2023-07-31T05:48:12.480Z,6.10
2023-07-31T05:49:14.514Z,5.93
2023-07-31T05:50:16.678Z,5.68
2023-07-31T05:51:18.734Z,6.43
2023-07-31T05:52:20.865Z,6.60
2023-07-31T05:53:22.854Z,6.28
2023-07-31T05:54:24.971Z,6.43
2023-07-31T05:55:28.065Z,6.85
2023-07-31T05:56:30.102Z,6.50
2023-07-31T05:57:32.370Z,7.38
2023-07-31T05:58:34.373Z,7.40
2023-07-31T05:59:36.369Z,7.18
2023-07-31T06:00:38.776Z,6.47
2023-07-31T06:01:41.049Z,6.43
2023-07-31T06:02:43.136Z,6.60
2023-07-31T06:03:45.583Z,5.80
2023-07-31T06:04:47.998Z,6.60
2023-07-31T06:05:50.234Z,6.88
2023-07-31T06:06:52.640Z,7.18
2023-07-31T06:07:54.723Z,6.35
2023-07-31T06:08:56.931Z,6.40
2023-07-31T06:10:04.264Z,5.85
2023-07-31T06:11:06.847Z,6.65
2023-07-31T06:12:09.970Z,6.95
2023-07-31T06:13:12.032Z,6.73
2023-07-31T06:14:14.196Z,6.63
2023-07-31T06:15:16.271Z,6.93
2023-07-31T06:16:18.461Z,6.95
2023-07-31T06:17:20.637Z,7.25
2023-07-31T06:18:22.711Z,7.28
2023-07-31T06:19:24.753Z,7.63
2023-07-31T06:20:26.880Z,6.72
2023-07-31T06:21:29.005Z,6.72
2023-07-31T06:22:31.084Z,6.57
2023-07-31T06:23:33.181Z,6.27
2023-07-31T06:24:35.227Z,5.70
2023-07-31T06:25:37.321Z,6.78
2023-07-31T06:26:39.634Z,6.03
2023-07-31T06:27:42.178Z,5.07
2023-07-31T06:28:44.316Z,6.15
2023-07-31T06:29:46.358Z,6.07
2023-07-31T06:30:48.615Z,6.20
2023-07-31T06:31:50.687Z,6.15
2023-07-31T06:32:52.826Z,6.20
2023-07-31T06:33:55.713Z,6.30
2023-07-31T06:34:57.709Z,6.00
2023-07-31T06:35:59.753Z,6.18
2023-07-31T06:37:02.290Z,5.72
2023-07-31T06:38:04.344Z,6.20
2023-07-31T06:39:06.403Z,6.25
2023-07-31T06:40:10.144Z,6.50
2023-07-31T06:41:12.212Z,6.38
2023-07-31T06:42:14.188Z,6.00
2023-07-31T06:43:16.270Z,6.45
2023-07-31T06:44:18.336Z,6.50
2023-07-31T06:45:20.553Z,6.60
2023-07-31T06:46:22.619Z,6.53
2023-07-31T06:47:24.609Z,6.40
2023-07-31T06:48:26.660Z,6.25
2023-07-31T06:49:28.758Z,6.20
2023-07-31T06:50:31.673Z,6.15
2023-07-31T06:51:33.726Z,6.50
2023-07-31T06:52:35.771Z,6.50
2023-07-31T06:53:37.886Z,6.38
2023-07-31T06:54:39.980Z,6.20
2023-07-31T06:55:42.047Z,6.18
2023-07-31T06:56:44.309Z,6.68
2023-07-31T06:57:47.650Z,6.75
2023-07-31T06:58:49.695Z,6.40
2023-07-31T06:59:51.693Z,6.70
2023-07-31T07:00:53.746Z,6.35
2023-07-31T07:01:56.174Z,6.30
2023-07-31T07:02:58.273Z,6.38
2023-07-31T07:04:00.329Z,6.38
2023-07-31T07:05:02.369Z,5.80
2023-07-31T07:06:04.450Z,6.03
2023-07-31T07:07:06.816Z,6.72
2023-07-31T07:08:08.981Z,7.22
2023-07-31T07:09:11.041Z,6.57
2023-07-31T07:10:13.353Z,6.65
2023-07-31T07:11:15.410Z,7.22
2023-07-31T07:12:17.456Z,6.32
2023-07-31T07:13:19.741Z,6.72
2023-07-31T07:14:22.953Z,6.22
2023-07-31T07:15:25.012Z,6.53
2023-07-31T07:16:27.246Z,6.45
2023-07-31T07:17:34.108Z,6.20
2023-07-31T07:18:37.704Z,6.47
2023-07-31T07:19:44.661Z,6.25
2023-07-31T07:20:54.676Z,6.47
2023-07-31T07:21:57.365Z,6.18
2023-07-31T07:22:59.473Z,6.03
2023-07-31T07:24:01.530Z,6.72
2023-07-31T07:25:05.090Z,5.80
2023-07-31T07:26:07.185Z,5.90
2023-07-31T07:27:09.282Z,5.70
2023-07-31T07:28:11.513Z,5.68
2023-07-31T07:29:13.622Z,5.45
2023-07-31T07:30:15.761Z,5.25
2023-07-31T07:31:18.075Z,5.70
2023-07-31T07:32:20.429Z,6.13
2023-07-31T07:33:22.499Z,5.70
2023-07-31T07:34:29.076Z,5.97
2023-07-31T07:35:31.204Z,6.22
2023-07-31T07:36:33.964Z,5.50
2023-07-31T07:37:36.118Z,5.90
2023-07-31T07:38:39.593Z,12.10
2023-07-31T07:39:42.318Z,8.18
2023-07-31T07:40:44.525Z,6.45
2023-07-31T07:41:46.552Z,5.88
2023-07-31T07:42:48.641Z,5.40
2023-07-31T07:43:50.686Z,5.50
2023-07-31T07:44:52.739Z,5.63
2023-07-31T07:45:54.775Z,6.38
2023-07-31T07:46:56.989Z,6.37
2023-07-31T07:48:00.239Z,6.38
2023-07-31T07:49:02.439Z,6.05
2023-07-31T07:50:05.819Z,5.50
2023-07-31T07:51:08.736Z,5.65
2023-07-31T07:52:10.794Z,4.80
2023-07-31T07:53:12.868Z,4.80
2023-07-31T07:54:15.060Z,5.20
2023-07-31T07:55:17.286Z,5.30
2023-07-31T07:56:19.340Z,5.28
2023-07-31T07:57:21.425Z,5.63
2023-07-31T07:58:23.571Z,5.07
2023-07-31T07:59:25.619Z,5.30
2023-07-31T08:00:27.645Z,5.20
2023-07-31T08:01:29.797Z,5.05
2023-07-31T08:02:31.855Z,5.00
2023-07-31T08:03:34.064Z,5.50
2023-07-31T08:04:36.210Z,5.00
2023-07-31T08:05:38.195Z,4.70
2023-07-31T08:06:40.310Z,4.90
2023-07-31T08:07:42.546Z,4.93
2023-07-31T08:08:44.632Z,4.38
2023-07-31T08:09:46.711Z,4.80
2023-07-31T08:10:48.712Z,4.53
2023-07-31T08:11:50.826Z,4.60
2023-07-31T08:12:52.863Z,4.63
2023-07-31T08:13:54.873Z,4.80
2023-07-31T08:14:56.957Z,4.65
2023-07-31T08:15:59.017Z,5.00
2023-07-31T08:17:01.983Z,5.05
2023-07-31T08:18:04.234Z,4.83
2023-07-31T08:19:06.475Z,5.00
2023-07-31T08:20:09.285Z,5.03
2023-07-31T08:21:11.492Z,4.63
2023-07-31T08:22:13.675Z,5.15
2023-07-31T08:23:15.742Z,4.85
2023-07-31T08:24:17.902Z,4.97
2023-07-31T08:25:20.217Z,5.07
2023-07-31T08:26:22.615Z,4.60
2023-07-31T08:27:24.707Z,4.53
2023-07-31T08:28:27.267Z,5.63
2023-07-31T08:29:29.417Z,4.90
2023-07-31T08:30:31.485Z,4.30
2023-07-31T08:31:33.576Z,4.68
2023-07-31T08:32:35.661Z,4.65
2023-07-31T08:33:38.222Z,5.40
2023-07-31T08:34:40.273Z,5.00
2023-07-31T08:35:42.301Z,4.47
2023-07-31T08:36:44.367Z,8.73
2023-07-31T08:37:46.516Z,4.65
2023-07-31T08:38:48.626Z,4.97
2023-07-31T08:39:50.689Z,4.72
2023-07-31T08:40:52.940Z,6.30
2023-07-31T08:42:00.298Z,5.30
2023-07-31T08:43:03.631Z,5.40
2023-07-31T08:44:08.788Z,5.10
2023-07-31T08:45:12.900Z,4.75
2023-07-31T08:46:15.628Z,4.65
2023-07-31T08:47:18.296Z,5.00
2023-07-31T08:48:23.500Z,4.85
2023-07-31T08:49:27.044Z,4.43
2023-07-31T08:50:29.175Z,4.30
2023-07-31T08:51:31.574Z,4.68
2023-07-31T08:52:33.594Z,4.63
2023-07-31T08:53:35.731Z,4.28
2023-07-31T08:54:37.895Z,4.63
2023-07-31T08:55:41.352Z,5.45
2023-07-31T08:56:44.145Z,4.50
2023-07-31T08:57:47.809Z,4.75
2023-07-31T08:58:50.877Z,4.68
2023-07-31T08:59:54.076Z,4.33
2023-07-31T09:00:56.762Z,4.95
2023-07-31T09:02:09.482Z,4.75
2023-07-31T09:03:16.927Z,4.63
2023-07-31T09:04:21.065Z,4.43
2023-07-31T09:05:24.220Z,4.70
2023-07-31T09:06:29.029Z,4.72
2023-07-31T09:07:34.989Z,4.60
2023-07-31T09:08:39.610Z,4.47
2023-07-31T09:09:41.657Z,4.32
2023-07-31T09:10:44.274Z,4.60
2023-07-31T09:11:46.438Z,4.70
2023-07-31T09:12:49.916Z,5.47
2023-07-31T09:13:53.228Z,5.00
2023-07-31T09:14:55.370Z,5.07
2023-07-31T09:15:57.518Z,4.70
2023-07-31T09:17:01.220Z,4.90
2023-07-31T09:18:04.512Z,4.57
2023-07-31T09:19:06.729Z,4.60
2023-07-31T09:20:17.313Z,4.20
2023-07-31T09:21:19.394Z,4.47
2023-07-31T09:22:36.398Z,4.50
2023-07-31T09:23:46.850Z,4.93
2023-07-31T09:24:48.951Z,4.28
2023-07-31T09:25:50.983Z,4.32
2023-07-31T09:26:57.158Z,4.60
2023-07-31T09:28:00.980Z,4.82
2023-07-31T09:29:19.506Z,4.80
2023-07-31T09:30:22.603Z,4.40
2023-07-31T09:31:44.156Z,4.40
2023-07-31T09:32:47.732Z,4.40
2023-07-31T09:33:57.551Z,4.55
2023-07-31T09:34:59.609Z,4.75
2023-07-31T09:36:02.030Z,4.47
2023-07-31T09:37:04.449Z,4.53
2023-07-31T09:38:13.375Z,4.82
2023-07-31T09:39:21.019Z,4.20
2023-07-31T09:40:32.946Z,4.68
2023-07-31T09:41:41.798Z,5.63
2023-07-31T09:42:44.002Z,4.38
2023-07-31T09:43:55.594Z,4.57
2023-07-31T09:45:11.483Z,4.55
2023-07-31T09:46:16.525Z,4.63
2023-07-31T09:47:25.815Z,4.38
2023-07-31T09:48:28.626Z,4.35
2023-07-31T09:49:31.099Z,4.40
2023-07-31T09:50:33.168Z,4.82
2023-07-31T09:51:39.446Z,4.63
2023-07-31T09:52:41.578Z,4.38
2023-07-31T09:53:51.733Z,4.63
2023-07-31T09:54:54.017Z,5.00
2023-07-31T09:55:57.999Z,4.60
2023-07-31T09:57:01.407Z,4.60
2023-07-31T09:58:08.186Z,4.40
2023-07-31T09:59:13.305Z,4.40
2023-07-31T10:00:19.926Z,4.40
2023-07-31T10:01:22.068Z,4.80
2023-07-31T10:02:24.554Z,4.90
2023-07-31T10:03:28.484Z,4.60
2023-07-31T10:04:31.490Z,4.57
2023-07-31T10:05:37.598Z,4.80
2023-07-31T10:06:40.932Z,4.90
2023-07-31T10:08:04.354Z,4.50
2023-07-31T10:09:10.151Z,4.80
2023-07-31T10:10:12.671Z,5.03
2023-07-31T10:11:15.424Z,4.60
2023-07-31T10:12:20.412Z,5.00
2023-07-31T10:13:23.442Z,4.40
2023-07-31T10:14:26.638Z,4.60
2023-07-31T10:15:29.985Z,4.70
2023-07-31T10:16:32.579Z,4.57
2023-07-31T10:17:38.153Z,4.70
2023-07-31T10:18:42.116Z,4.70
2023-07-31T10:19:45.281Z,4.47
2023-07-31T10:20:48.505Z,4.68
2023-07-31T10:21:50.910Z,4.80
2023-07-31T10:22:55.153Z,4.50
2023-07-31T10:23:57.682Z,4.80
2023-07-31T10:25:00.547Z,4.72
2023-07-31T10:26:03.530Z,4.35
2023-07-31T10:27:05.930Z,4.47
2023-07-31T10:28:09.344Z,4.75
2023-07-31T10:29:11.773Z,4.25
2023-07-31T10:30:19.752Z,4.80
2023-07-31T10:31:23.585Z,4.30
2023-07-31T10:32:26.646Z,4.40
2023-07-31T10:33:29.402Z,4.50
2023-07-31T10:34:31.706Z,4.72
2023-07-31T10:35:34.259Z,4.72
2023-07-31T10:36:36.461Z,4.53
2023-07-31T10:37:43.792Z,4.63
2023-07-31T10:38:46.157Z,4.68
2023-07-31T10:39:57.582Z,4.55
2023-07-31T10:41:12.050Z,4.95
2023-07-31T10:42:14.806Z,4.60
2023-07-31T10:43:28.331Z,4.20
2023-07-31T10:44:30.703Z,5.03
2023-07-31T10:45:32.747Z,4.50
2023-07-31T10:46:34.997Z,4.70
2023-07-31T10:47:47.556Z,4.90
2023-07-31T10:49:02.537Z,5.20
2023-07-31T10:50:20.818Z,5.10
2023-07-31T10:51:23.911Z,4.88
2023-07-31T10:52:28.096Z,4.72
2023-07-31T10:53:34.309Z,5.10
2023-07-31T10:54:36.393Z,5.50
2023-07-31T10:55:45.078Z,5.45
2023-07-31T10:56:48.671Z,4.60
2023-07-31T10:57:51.003Z,5.00
2023-07-31T10:59:04.536Z,5.10
2023-07-31T11:00:21.810Z,5.33
2023-07-31T11:01:23.857Z,5.00
2023-07-31T11:02:31.967Z,5.57
2023-07-31T11:03:53.721Z,5.07
2023-07-31T11:05:11.720Z,4.90
2023-07-31T11:06:18.370Z,5.00
2023-07-31T11:07:20.853Z,4.72
2023-07-31T11:08:25.474Z,4.45
2023-07-31T11:09:33.027Z,4.97
2023-07-31T11:10:35.144Z,4.80
2023-07-31T11:11:38.256Z,5.00
2023-07-31T11:12:40.685Z,4.50
2023-07-31T11:13:53.692Z,4.50
2023-07-31T11:14:58.063Z,4.75
2023-07-31T11:16:01.033Z,4.20
2023-07-31T11:17:09.320Z,4.53
2023-07-31T11:18:12.542Z,4.22
2023-07-31T11:19:14.612Z,4.00
2023-07-31T11:20:16.628Z,4.25
2023-07-31T11:21:20.930Z,4.70
2023-07-31T11:22:23.195Z,4.83
2023-07-31T11:23:25.429Z,4.43
2023-07-31T11:24:28.448Z,4.13
2023-07-31T11:25:32.585Z,4.70
2023-07-31T11:26:34.695Z,4.65
2023-07-31T11:27:44.639Z,4.65
2023-07-31T11:28:50.616Z,4.75
2023-07-31T11:29:52.660Z,5.45
2023-07-31T11:30:57.356Z,5.00
2023-07-31T11:31:59.516Z,4.90
2023-07-31T11:33:07.231Z,5.43
2023-07-31T11:34:09.384Z,4.70
2023-07-31T11:35:13.973Z,5.18
2023-07-31T11:36:20.719Z,5.05
2023-07-31T11:37:24.346Z,5.00
2023-07-31T11:40:47.172Z,4.35
2023-07-31T11:41:49.366Z,4.60
2023-07-31T11:42:51.553Z,4.60
2023-07-31T11:45:49.853Z,4.77
2023-07-31T11:46:51.998Z,4.57
2023-07-31T11:47:56.215Z,4.30
2023-07-31T11:49:02.045Z,4.88
2023-07-31T11:50:05.676Z,4.55
2023-07-31T11:51:11.986Z,4.40
2023-07-31T11:52:14.642Z,4.47
2023-07-31T11:53:17.962Z,4.50
2023-07-31T11:54:20.194Z,4.43
2023-07-31T11:55:22.793Z,4.50
2023-07-31T11:56:26.124Z,4.57
2023-07-31T11:57:30.567Z,4.85
2023-07-31T11:58:35.049Z,4.68
2023-07-31T11:59:37.270Z,4.78
2023-07-31T12:00:52.824Z,4.85
2023-07-31T12:02:01.917Z,4.43
2023-07-31T12:03:23.861Z,4.70
2023-07-31T12:04:27.349Z,5.10
2023-07-31T12:05:29.675Z,4.95
2023-07-31T12:06:36.803Z,4.50
2023-07-31T12:08:10.274Z,4.50
2023-07-31T12:09:15.319Z,4.43
2023-07-31T12:10:31.388Z,4.60
2023-07-31T12:11:45.156Z,4.80
2023-07-31T12:13:04.478Z,4.20
2023-07-31T12:14:06.602Z,4.15
2023-07-31T12:15:16.917Z,4.28
2023-07-31T12:16:19.053Z,3.90
2023-07-31T12:17:21.696Z,3.83
2023-07-31T12:18:25.361Z,3.95
2023-07-31T12:19:31.279Z,4.20
2023-07-31T12:20:34.376Z,4.00
2023-07-31T12:21:36.504Z,4.38
2023-07-31T12:22:38.611Z,4.25
2023-07-31T12:23:43.024Z,3.95
2023-07-31T12:24:45.889Z,4.13
2023-07-31T12:25:47.994Z,4.18
2023-07-31T12:26:50.421Z,4.80
2023-07-31T12:27:52.820Z,4.60
2023-07-31T12:28:56.004Z,4.60
2023-07-31T12:29:58.062Z,5.20
2023-07-31T12:31:01.653Z,4.68
2023-07-31T12:32:44.086Z,5.00
2023-07-31T12:34:38.930Z,4.35
2023-07-31T12:35:59.949Z,4.85
2023-07-31T12:38:43.572Z,4.10
2023-07-31T12:40:12.102Z,3.88
2023-07-31T12:41:14.489Z,4.28
2023-07-31T12:42:19.146Z,4.05
2023-07-31T12:43:31.452Z,4.53
2023-07-31T12:44:45.937Z,4.35
2023-07-31T12:46:32.310Z,4.50
2023-07-31T12:47:40.683Z,4.20
2023-07-31T12:49:02.985Z,3.97
2023-07-31T12:50:05.631Z,4.38
2023-07-31T12:51:08.693Z,4.45
2023-07-31T12:52:10.988Z,4.40
2023-07-31T12:53:13.037Z,4.13
2023-07-31T12:54:15.090Z,4.18
2023-07-31T12:55:17.525Z,4.00
2023-07-31T12:56:19.661Z,3.80
2023-07-31T12:57:22.631Z,3.90
2023-07-31T12:58:24.892Z,3.97
2023-07-31T12:59:26.945Z,4.18
2023-07-31T13:00:29.120Z,3.50
2023-07-31T13:01:31.258Z,4.18
2023-07-31T13:02:33.374Z,3.72
2023-07-31T13:03:35.707Z,4.07
2023-07-31T13:04:37.821Z,3.63
2023-07-31T13:05:40.002Z,3.70
2023-07-31T13:06:42.300Z,4.22
2023-07-31T13:07:44.688Z,3.85
2023-07-31T13:08:46.754Z,3.80
2023-07-31T13:09:48.908Z,3.58
2023-07-31T13:10:51.126Z,3.72
2023-07-31T13:11:53.126Z,5.15
2023-07-31T13:12:55.460Z,3.67
2023-07-31T13:13:57.591Z,3.80
2023-07-31T13:14:59.801Z,4.10
2023-07-31T13:16:02.108Z,3.73
2023-07-31T13:17:04.492Z,3.60
2023-07-31T13:18:06.719Z,3.85
2023-07-31T13:19:08.832Z,3.72
2023-07-31T13:20:11.370Z,3.97
2023-07-31T13:21:14.174Z,3.55
2023-07-31T13:22:16.267Z,3.53
2023-07-31T13:23:18.429Z,3.67
2023-07-31T13:24:20.516Z,3.60
2023-07-31T13:25:22.635Z,3.63
2023-07-31T13:26:24.945Z,3.90
2023-07-31T13:27:27.183Z,3.67
2023-07-31T13:28:29.355Z,3.67
2023-07-31T13:29:31.648Z,3.70
2023-07-31T13:30:33.947Z,3.70
2023-07-31T13:31:36.080Z,3.85
2023-07-31T13:32:39.943Z,3.40
2023-07-31T13:33:44.357Z,3.58
2023-07-31T13:34:47.308Z,3.70
2023-07-31T13:35:49.828Z,3.53
2023-07-31T13:36:51.950Z,3.67
2023-07-31T13:37:54.091Z,3.33
2023-07-31T13:38:56.189Z,3.67
2023-07-31T13:39:58.262Z,3.40
2023-07-31T13:41:00.469Z,3.60
2023-07-31T13:42:09.541Z,3.58
2023-07-31T13:43:11.668Z,3.70
2023-07-31T13:44:13.757Z,3.40
2023-07-31T13:45:16.252Z,3.80
2023-07-31T13:46:19.196Z,3.60
2023-07-31T13:47:45.784Z,3.73
2023-07-31T13:48:47.864Z,3.20
2023-07-31T13:49:50.251Z,3.63
2023-07-31T13:51:11.806Z,4.00
2023-07-31T13:52:14.029Z,3.70
2023-07-31T13:53:16.166Z,3.70
2023-07-31T13:54:18.334Z,3.60
2023-07-31T13:55:27.239Z,3.20
2023-07-31T13:57:08.154Z,3.30
2023-07-31T13:58:16.959Z,4.25
2023-07-31T13:59:19.302Z,3.80
2023-07-31T14:00:21.411Z,3.17
2023-07-31T14:01:23.566Z,3.53
2023-07-31T14:02:25.743Z,3.88
2023-07-31T14:03:27.911Z,3.45
2023-07-31T14:04:30.055Z,3.55
2023-07-31T14:05:32.079Z,3.38
2023-07-31T14:06:34.186Z,3.75
2023-07-31T14:07:36.291Z,3.60
2023-07-31T14:08:38.328Z,3.50
2023-07-31T14:09:40.429Z,3.20
2023-07-31T14:10:42.421Z,3.13
2023-07-31T14:11:44.613Z,3.47
2023-07-31T14:12:46.701Z,3.88
2023-07-31T14:13:48.699Z,3.83
2023-07-31T14:14:50.782Z,3.63
2023-07-31T14:15:52.977Z,4.18
2023-07-31T14:16:55.271Z,3.78
2023-07-31T14:18:00.604Z,3.47
2023-07-31T14:19:04.363Z,3.80
2023-07-31T14:20:07.655Z,3.60